sensor_id;sensor_type;location;lat;lon;timestamp;temperature;humidity
2929;DHT22;1474;51.460;7.150;2023-04-15T00:00:48;7.60;99.90
2929;DHT22;1474;51.460;7.150;2023-04-15T00:03:15;7.50;99.90
2929;DHT22;1474;51.460;7.150;2023-04-15T00:05:41;7.40;99.90
2929;DHT22;1474;51.460;7.150;2023-04-15T00:08:07;7.40;99.90
2929;DHT22;1474;51.460;7.150;2023-04-15T00:10:33;7.30;99.90
2929;DHT22;1474;51.460;7.150;2023-04-15T00:12:59;7.20;99.90
2929;DHT22;1474;51.460;7.150;2023-04-15T00:15:25;7.20;99.90
2929;DHT22;1474;51.460;7.150;2023-04-15T00:17:51;7.10;99.90
2929;DHT22;1474;51.460;7.150;2023-04-15T00:20:17;7.10;99.90
2929;DHT22;1474;51.460;7.150;2023-04-15T00:22:42;7.10;99.90
2929;DHT22;1474;51.460;7.150;2023-04-15T00:25:08;7.10;99.90
2929;DHT22;1474;51.460;7.150;2023-04-15T00:27:34;7.10;99.90
2929;DHT22;1474;51.460;7.150;2023-04-15T00:29:59;7.00;99.90
2929;DHT22;1474;51.460;7.150;2023-04-15T00:32:25;7.00;99.90
2929;DHT22;1474;51.460;7.150;2023-04-15T00:34:51;7.00;99.90
2929;DHT22;1474;51.460;7.150;2023-04-15T00:37:17;7.00;99.90
2929;DHT22;1474;51.460;7.150;2023-04-15T00:39:42;6.90;99.90
2929;DHT22;1474;51.460;7.150;2023-04-15T00:42:09;6.90;99.90
2929;DHT22;1474;51.460;7.150;2023-04-15T00:44:35;6.90;99.90
2929;DHT22;1474;51.460;7.150;2023-04-15T00:47:00;6.80;99.90
2929;DHT22;1474;51.460;7.150;2023-04-15T00:49:29;6.80;99.90
2929;DHT22;1474;51.460;7.150;2023-04-15T00:51:56;6.80;99.90
2929;DHT22;1474;51.460;7.150;2023-04-15T00:54:22;6.70;99.90
2929;DHT22;1474;51.460;7.150;2023-04-15T00:56:47;6.60;99.90
2929;DHT22;1474;51.460;7.150;2023-04-15T00:59:14;6.60;99.90
2929;DHT22;1474;51.460;7.150;2023-04-15T01:01:40;6.60;99.90
2929;DHT22;1474;51.460;7.150;2023-04-15T01:04:06;6.50;99.90
2929;DHT22;1474;51.460;7.150;2023-04-15T01:06:32;6.50;99.90
2929;DHT22;1474;51.460;7.150;2023-04-15T01:08:59;6.50;99.90
2929;DHT22;1474;51.460;7.150;2023-04-15T01:11:25;6.40;99.90
2929;DHT22;1474;51.460;7.150;2023-04-15T01:13:51;6.40;99.90
2929;DHT22;1474;51.460;7.150;2023-04-15T01:16:18;6.30;99.90
2929;DHT22;1474;51.460;7.150;2023-04-15T01:18:45;6.40;99.90
2929;DHT22;1474;51.460;7.150;2023-04-15T01:21:10;6.30;99.90
2929;DHT22;1474;51.460;7.150;2023-04-15T01:23:38;6.30;99.90
2929;DHT22;1474;51.460;7.150;2023-04-15T01:26:05;6.30;99.90
2929;DHT22;1474;51.460;7.150;2023-04-15T01:28:31;6.30;99.90
2929;DHT22;1474;51.460;7.150;2023-04-15T01:31:07;6.30;99.90
2929;DHT22;1474;51.460;7.150;2023-04-15T01:33:33;6.20;99.90
2929;DHT22;1474;51.460;7.150;2023-04-15T01:35:59;6.20;99.90
2929;DHT22;1474;51.460;7.150;2023-04-15T01:38:26;6.20;99.90
2929;DHT22;1474;51.460;7.150;2023-04-15T01:40:52;6.20;99.90
2929;DHT22;1474;51.460;7.150;2023-04-15T01:43:18;6.20;99.90
2929;DHT22;1474;51.460;7.150;2023-04-15T01:45:44;6.20;99.90
2929;DHT22;1474;51.460;7.150;2023-04-15T01:48:10;6.20;99.90
2929;DHT22;1474;51.460;7.150;2023-04-15T01:50:36;6.10;99.90
2929;DHT22;1474;51.460;7.150;2023-04-15T01:53:03;6.10;99.90
2929;DHT22;1474;51.460;7.150;2023-04-15T01:55:28;6.10;99.90
2929;DHT22;1474;51.460;7.150;2023-04-15T01:57:55;6.10;99.90
2929;DHT22;1474;51.460;7.150;2023-04-15T02:00:22;6.10;99.90
2929;DHT22;1474;51.460;7.150;2023-04-15T02:02:47;6.10;99.90
2929;DHT22;1474;51.460;7.150;2023-04-15T02:05:14;6.00;99.90
2929;DHT22;1474;51.460;7.150;2023-04-15T02:07:43;6.00;99.90
2929;DHT22;1474;51.460;7.150;2023-04-15T02:10:09;6.00;99.90
2929;DHT22;1474;51.460;7.150;2023-04-15T02:12:37;6.00;99.90
2929;DHT22;1474;51.460;7.150;2023-04-15T02:15:03;5.90;99.90
2929;DHT22;1474;51.460;7.150;2023-04-15T02:17:29;5.90;99.90
2929;DHT22;1474;51.460;7.150;2023-04-15T02:19:55;5.90;99.90
2929;DHT22;1474;51.460;7.150;2023-04-15T02:22:21;5.80;99.90
2929;DHT22;1474;51.460;7.150;2023-04-15T02:24:47;5.80;99.90
2929;DHT22;1474;51.460;7.150;2023-04-15T02:27:16;5.80;99.90
2929;DHT22;1474;51.460;7.150;2023-04-15T02:29:43;5.80;99.90
2929;DHT22;1474;51.460;7.150;2023-04-15T02:32:10;5.80;99.90
2929;DHT22;1474;51.460;7.150;2023-04-15T02:34:36;5.70;99.90
2929;DHT22;1474;51.460;7.150;2023-04-15T02:37:06;5.70;99.90
2929;DHT22;1474;51.460;7.150;2023-04-15T02:39:32;5.70;99.90
2929;DHT22;1474;51.460;7.150;2023-04-15T02:41:57;5.60;99.90
2929;DHT22;1474;51.460;7.150;2023-04-15T02:44:24;5.70;99.90
2929;DHT22;1474;51.460;7.150;2023-04-15T02:46:50;5.70;99.90
2929;DHT22;1474;51.460;7.150;2023-04-15T02:49:17;5.70;99.90
2929;DHT22;1474;51.460;7.150;2023-04-15T02:51:43;5.70;99.90
2929;DHT22;1474;51.460;7.150;2023-04-15T02:54:17;5.70;99.90
2929;DHT22;1474;51.460;7.150;2023-04-15T02:56:42;5.70;99.90
2929;DHT22;1474;51.460;7.150;2023-04-15T02:59:08;5.70;99.90
2929;DHT22;1474;51.460;7.150;2023-04-15T03:01:34;5.60;99.90
2929;DHT22;1474;51.460;7.150;2023-04-15T03:03:59;5.60;99.90
2929;DHT22;1474;51.460;7.150;2023-04-15T03:06:25;5.60;99.90
2929;DHT22;1474;51.460;7.150;2023-04-15T03:08:51;5.60;99.90
2929;DHT22;1474;51.460;7.150;2023-04-15T03:11:17;5.60;99.90
2929;DHT22;1474;51.460;7.150;2023-04-15T03:13:43;5.60;99.90
2929;DHT22;1474;51.460;7.150;2023-04-15T03:16:09;5.50;99.90
2929;DHT22;1474;51.460;7.150;2023-04-15T03:18:34;5.60;99.90
2929;DHT22;1474;51.460;7.150;2023-04-15T03:21:00;5.60;99.90
2929;DHT22;1474;51.460;7.150;2023-04-15T03:23:27;5.60;99.90
2929;DHT22;1474;51.460;7.150;2023-04-15T03:25:52;5.50;99.90
2929;DHT22;1474;51.460;7.150;2023-04-15T03:28:21;5.50;99.90
2929;DHT22;1474;51.460;7.150;2023-04-15T03:30:47;5.60;99.90
2929;DHT22;1474;51.460;7.150;2023-04-15T03:33:12;5.50;99.90
2929;DHT22;1474;51.460;7.150;2023-04-15T03:35:38;5.50;99.90
2929;DHT22;1474;51.460;7.150;2023-04-15T03:38:03;5.50;99.90
2929;DHT22;1474;51.460;7.150;2023-04-15T03:40:29;5.50;99.90
2929;DHT22;1474;51.460;7.150;2023-04-15T03:42:55;5.50;99.90
2929;DHT22;1474;51.460;7.150;2023-04-15T03:45:20;5.40;99.90
2929;DHT22;1474;51.460;7.150;2023-04-15T03:47:46;5.40;99.90
2929;DHT22;1474;51.460;7.150;2023-04-15T03:50:12;5.50;99.90
2929;DHT22;1474;51.460;7.150;2023-04-15T03:52:37;5.50;99.90
2929;DHT22;1474;51.460;7.150;2023-04-15T03:55:03;5.50;99.90
2929;DHT22;1474;51.460;7.150;2023-04-15T03:57:29;5.40;99.90
2929;DHT22;1474;51.460;7.150;2023-04-15T03:59:55;5.40;99.90
2929;DHT22;1474;51.460;7.150;2023-04-15T04:02:21;5.40;99.90
2929;DHT22;1474;51.460;7.150;2023-04-15T04:04:47;5.40;99.90
2929;DHT22;1474;51.460;7.150;2023-04-15T04:07:16;5.40;99.90
2929;DHT22;1474;51.460;7.150;2023-04-15T04:09:42;5.40;99.90
2929;DHT22;1474;51.460;7.150;2023-04-15T04:12:07;5.40;99.90
2929;DHT22;1474;51.460;7.150;2023-04-15T04:14:33;5.40;99.90
2929;DHT22;1474;51.460;7.150;2023-04-15T04:16:59;5.40;99.90
2929;DHT22;1474;51.460;7.150;2023-04-15T04:19:24;5.40;99.90
2929;DHT22;1474;51.460;7.150;2023-04-15T04:21:50;5.40;99.90
2929;DHT22;1474;51.460;7.150;2023-04-15T04:24:16;5.30;99.90
2929;DHT22;1474;51.460;7.150;2023-04-15T04:26:42;5.30;99.90
2929;DHT22;1474;51.460;7.150;2023-04-15T04:29:07;5.30;99.90
2929;DHT22;1474;51.460;7.150;2023-04-15T04:31:33;5.30;99.90
2929;DHT22;1474;51.460;7.150;2023-04-15T04:33:59;5.30;99.90
2929;DHT22;1474;51.460;7.150;2023-04-15T04:36:24;5.30;99.90
2929;DHT22;1474;51.460;7.150;2023-04-15T04:38:50;5.30;99.90
2929;DHT22;1474;51.460;7.150;2023-04-15T04:41:21;5.30;99.90
2929;DHT22;1474;51.460;7.150;2023-04-15T04:43:47;5.30;99.90
2929;DHT22;1474;51.460;7.150;2023-04-15T04:46:13;5.30;99.90
2929;DHT22;1474;51.460;7.150;2023-04-15T04:48:39;5.30;99.90
2929;DHT22;1474;51.460;7.150;2023-04-15T04:51:05;5.30;99.90
2929;DHT22;1474;51.460;7.150;2023-04-15T04:53:30;5.30;99.90
2929;DHT22;1474;51.460;7.150;2023-04-15T04:55:56;5.30;99.90
2929;DHT22;1474;51.460;7.150;2023-04-15T04:58:22;5.30;99.90
2929;DHT22;1474;51.460;7.150;2023-04-15T05:00:48;5.30;99.90
2929;DHT22;1474;51.460;7.150;2023-04-15T05:03:13;5.30;99.90
2929;DHT22;1474;51.460;7.150;2023-04-15T05:05:39;5.30;99.90
2929;DHT22;1474;51.460;7.150;2023-04-15T05:08:05;5.20;99.90
2929;DHT22;1474;51.460;7.150;2023-04-15T05:10:32;5.20;99.90
2929;DHT22;1474;51.460;7.150;2023-04-15T05:12:57;5.20;99.90
2929;DHT22;1474;51.460;7.150;2023-04-15T05:15:23;5.20;99.90
2929;DHT22;1474;51.460;7.150;2023-04-15T05:17:49;5.20;99.90
2929;DHT22;1474;51.460;7.150;2023-04-15T05:20:14;5.20;99.90
2929;DHT22;1474;51.460;7.150;2023-04-15T05:22:40;5.20;99.90
2929;DHT22;1474;51.460;7.150;2023-04-15T05:25:06;5.30;99.90
2929;DHT22;1474;51.460;7.150;2023-04-15T05:27:32;5.30;99.90
2929;DHT22;1474;51.460;7.150;2023-04-15T05:29:57;5.30;99.90
2929;DHT22;1474;51.460;7.150;2023-04-15T05:32:23;5.20;99.90
2929;DHT22;1474;51.460;7.150;2023-04-15T05:34:49;5.30;99.90
2929;DHT22;1474;51.460;7.150;2023-04-15T05:37:14;5.40;99.90
2929;DHT22;1474;51.460;7.150;2023-04-15T05:39:40;5.40;99.90
2929;DHT22;1474;51.460;7.150;2023-04-15T05:42:06;5.40;99.90
2929;DHT22;1474;51.460;7.150;2023-04-15T05:44:32;5.50;99.90
2929;DHT22;1474;51.460;7.150;2023-04-15T05:46:58;5.60;99.90
2929;DHT22;1474;51.460;7.150;2023-04-15T05:49:23;5.60;99.90
2929;DHT22;1474;51.460;7.150;2023-04-15T05:51:49;5.70;99.90
2929;DHT22;1474;51.460;7.150;2023-04-15T05:54:14;5.80;99.90
2929;DHT22;1474;51.460;7.150;2023-04-15T05:56:40;5.80;99.90
2929;DHT22;1474;51.460;7.150;2023-04-15T05:59:06;5.80;99.90
2929;DHT22;1474;51.460;7.150;2023-04-15T06:01:32;5.90;99.90
2929;DHT22;1474;51.460;7.150;2023-04-15T06:03:58;5.90;99.90
2929;DHT22;1474;51.460;7.150;2023-04-15T06:06:24;6.00;99.90
2929;DHT22;1474;51.460;7.150;2023-04-15T06:08:51;6.00;99.90
2929;DHT22;1474;51.460;7.150;2023-04-15T06:11:18;6.00;99.90
2929;DHT22;1474;51.460;7.150;2023-04-15T06:13:45;6.10;99.90
2929;DHT22;1474;51.460;7.150;2023-04-15T06:16:10;6.10;99.90
2929;DHT22;1474;51.460;7.150;2023-04-15T06:18:37;6.20;99.90
2929;DHT22;1474;51.460;7.150;2023-04-15T06:21:03;6.30;99.90
2929;DHT22;1474;51.460;7.150;2023-04-15T06:23:28;6.30;99.90
2929;DHT22;1474;51.460;7.150;2023-04-15T06:25:54;6.30;99.90
2929;DHT22;1474;51.460;7.150;2023-04-15T06:28:20;6.40;99.90
2929;DHT22;1474;51.460;7.150;2023-04-15T06:30:46;6.50;99.90
2929;DHT22;1474;51.460;7.150;2023-04-15T06:33:11;6.50;99.90
2929;DHT22;1474;51.460;7.150;2023-04-15T06:35:37;6.60;99.90
2929;DHT22;1474;51.460;7.150;2023-04-15T06:38:03;6.60;99.90
2929;DHT22;1474;51.460;7.150;2023-04-15T06:40:29;6.60;99.90
2929;DHT22;1474;51.460;7.150;2023-04-15T06:42:55;6.70;99.90
2929;DHT22;1474;51.460;7.150;2023-04-15T06:45:21;6.70;99.90
2929;DHT22;1474;51.460;7.150;2023-04-15T06:47:46;6.80;99.90
2929;DHT22;1474;51.460;7.150;2023-04-15T06:50:12;6.80;99.90
2929;DHT22;1474;51.460;7.150;2023-04-15T06:52:38;6.90;99.90
2929;DHT22;1474;51.460;7.150;2023-04-15T06:55:04;7.00;99.90
2929;DHT22;1474;51.460;7.150;2023-04-15T06:57:30;7.00;99.90
2929;DHT22;1474;51.460;7.150;2023-04-15T06:59:55;7.10;99.90
2929;DHT22;1474;51.460;7.150;2023-04-15T07:02:21;7.20;99.90
2929;DHT22;1474;51.460;7.150;2023-04-15T07:04:47;7.20;99.90
2929;DHT22;1474;51.460;7.150;2023-04-15T07:07:13;7.40;99.90
2929;DHT22;1474;51.460;7.150;2023-04-15T07:09:39;7.50;99.90
2929;DHT22;1474;51.460;7.150;2023-04-15T07:12:05;7.50;99.90
2929;DHT22;1474;51.460;7.150;2023-04-15T07:14:31;7.70;99.90
2929;DHT22;1474;51.460;7.150;2023-04-15T07:16:57;7.80;99.90
2929;DHT22;1474;51.460;7.150;2023-04-15T07:19:22;7.90;99.90
2929;DHT22;1474;51.460;7.150;2023-04-15T07:21:48;8.00;99.90
2929;DHT22;1474;51.460;7.150;2023-04-15T07:24:14;8.00;99.90
2929;DHT22;1474;51.460;7.150;2023-04-15T07:26:43;8.10;99.90
2929;DHT22;1474;51.460;7.150;2023-04-15T07:29:09;8.20;99.90
2929;DHT22;1474;51.460;7.150;2023-04-15T07:31:35;8.30;99.90
2929;DHT22;1474;51.460;7.150;2023-04-15T07:34:02;8.30;99.90
2929;DHT22;1474;51.460;7.150;2023-04-15T07:36:28;8.40;99.90
2929;DHT22;1474;51.460;7.150;2023-04-15T07:38:54;8.40;99.90
2929;DHT22;1474;51.460;7.150;2023-04-15T07:41:20;8.40;99.90
2929;DHT22;1474;51.460;7.150;2023-04-15T07:43:46;8.50;99.90
2929;DHT22;1474;51.460;7.150;2023-04-15T07:46:13;8.60;99.90
2929;DHT22;1474;51.460;7.150;2023-04-15T07:48:39;8.70;99.90
2929;DHT22;1474;51.460;7.150;2023-04-15T07:51:05;8.80;99.90
2929;DHT22;1474;51.460;7.150;2023-04-15T07:53:30;8.90;99.90
2929;DHT22;1474;51.460;7.150;2023-04-15T07:55:57;9.10;99.90
2929;DHT22;1474;51.460;7.150;2023-04-15T07:58:23;9.20;99.90
2929;DHT22;1474;51.460;7.150;2023-04-15T08:00:49;9.30;99.90
2929;DHT22;1474;51.460;7.150;2023-04-15T08:03:14;9.40;99.90
2929;DHT22;1474;51.460;7.150;2023-04-15T08:05:40;9.50;99.90
2929;DHT22;1474;51.460;7.150;2023-04-15T08:08:06;9.60;99.90
2929;DHT22;1474;51.460;7.150;2023-04-15T08:10:32;9.70;99.90
2929;DHT22;1474;51.460;7.150;2023-04-15T08:12:58;9.80;99.90
2929;DHT22;1474;51.460;7.150;2023-04-15T08:15:24;9.90;99.90
2929;DHT22;1474;51.460;7.150;2023-04-15T08:17:50;9.90;99.90
2929;DHT22;1474;51.460;7.150;2023-04-15T08:20:16;10.10;99.90
2929;DHT22;1474;51.460;7.150;2023-04-15T08:22:42;10.10;99.90
2929;DHT22;1474;51.460;7.150;2023-04-15T08:25:08;10.10;99.90
2929;DHT22;1474;51.460;7.150;2023-04-15T08:27:34;10.20;99.90
2929;DHT22;1474;51.460;7.150;2023-04-15T08:30:00;10.40;99.90
2929;DHT22;1474;51.460;7.150;2023-04-15T08:32:26;10.50;99.90
2929;DHT22;1474;51.460;7.150;2023-04-15T08:34:52;10.60;99.90
2929;DHT22;1474;51.460;7.150;2023-04-15T08:37:17;10.50;99.90
2929;DHT22;1474;51.460;7.150;2023-04-15T08:39:44;10.60;99.90
2929;DHT22;1474;51.460;7.150;2023-04-15T08:42:16;10.70;99.90
2929;DHT22;1474;51.460;7.150;2023-04-15T08:44:42;11.00;99.90
2929;DHT22;1474;51.460;7.150;2023-04-15T08:47:12;11.10;99.90
2929;DHT22;1474;51.460;7.150;2023-04-15T08:49:40;11.20;99.90
2929;DHT22;1474;51.460;7.150;2023-04-15T08:52:07;11.40;99.90
2929;DHT22;1474;51.460;7.150;2023-04-15T08:54:34;11.60;99.90
2929;DHT22;1474;51.460;7.150;2023-04-15T08:57:00;11.80;99.90
2929;DHT22;1474;51.460;7.150;2023-04-15T08:59:29;11.70;99.90
2929;DHT22;1474;51.460;7.150;2023-04-15T09:01:56;11.80;99.90
2929;DHT22;1474;51.460;7.150;2023-04-15T09:04:22;11.70;99.90
2929;DHT22;1474;51.460;7.150;2023-04-15T09:06:48;11.70;99.90
2929;DHT22;1474;51.460;7.150;2023-04-15T09:09:13;11.80;99.90
2929;DHT22;1474;51.460;7.150;2023-04-15T09:11:39;11.80;99.90
2929;DHT22;1474;51.460;7.150;2023-04-15T09:14:05;11.80;99.90
2929;DHT22;1474;51.460;7.150;2023-04-15T09:16:31;11.80;99.90
2929;DHT22;1474;51.460;7.150;2023-04-15T09:18:57;11.80;99.90
2929;DHT22;1474;51.460;7.150;2023-04-15T09:21:23;11.80;99.90
2929;DHT22;1474;51.460;7.150;2023-04-15T09:23:59;11.90;99.90
2929;DHT22;1474;51.460;7.150;2023-04-15T09:26:36;11.90;99.90
2929;DHT22;1474;51.460;7.150;2023-04-15T09:29:07;11.90;99.90
2929;DHT22;1474;51.460;7.150;2023-04-15T09:31:55;12.00;99.90
2929;DHT22;1474;51.460;7.150;2023-04-15T09:34:20;12.00;99.90
2929;DHT22;1474;51.460;7.150;2023-04-15T09:40:08;11.90;99.90
2929;DHT22;1474;51.460;7.150;2023-04-15T09:42:35;11.70;99.90
2929;DHT22;1474;51.460;7.150;2023-04-15T09:45:11;11.50;99.90
2929;DHT22;1474;51.460;7.150;2023-04-15T09:47:36;11.40;99.90
2929;DHT22;1474;51.460;7.150;2023-04-15T09:50:02;11.30;99.90
2929;DHT22;1474;51.460;7.150;2023-04-15T09:52:29;11.30;99.90
2929;DHT22;1474;51.460;7.150;2023-04-15T09:54:56;11.40;99.90
2929;DHT22;1474;51.460;7.150;2023-04-15T09:57:23;11.40;99.90
2929;DHT22;1474;51.460;7.150;2023-04-15T09:59:49;11.40;99.90
2929;DHT22;1474;51.460;7.150;2023-04-15T10:02:17;11.40;99.90
2929;DHT22;1474;51.460;7.150;2023-04-15T10:04:44;11.40;99.90
2929;DHT22;1474;51.460;7.150;2023-04-15T10:07:13;11.40;99.90
2929;DHT22;1474;51.460;7.150;2023-04-15T10:09:39;11.50;99.90
2929;DHT22;1474;51.460;7.150;2023-04-15T10:12:05;11.60;99.90
2929;DHT22;1474;51.460;7.150;2023-04-15T10:14:33;11.60;99.90
2929;DHT22;1474;51.460;7.150;2023-04-15T10:17:01;11.70;99.90
2929;DHT22;1474;51.460;7.150;2023-04-15T10:19:30;11.60;99.90
2929;DHT22;1474;51.460;7.150;2023-04-15T10:21:58;11.60;99.90
2929;DHT22;1474;51.460;7.150;2023-04-15T10:24:24;11.60;99.90
2929;DHT22;1474;51.460;7.150;2023-04-15T10:26:51;11.60;99.90
2929;DHT22;1474;51.460;7.150;2023-04-15T10:29:17;11.60;99.90
2929;DHT22;1474;51.460;7.150;2023-04-15T10:31:43;11.70;99.90
2929;DHT22;1474;51.460;7.150;2023-04-15T10:34:10;11.70;99.90
2929;DHT22;1474;51.460;7.150;2023-04-15T10:36:36;11.60;99.90
2929;DHT22;1474;51.460;7.150;2023-04-15T10:39:55;11.70;99.90
2929;DHT22;1474;51.460;7.150;2023-04-15T10:42:16;11.60;99.90
2929;DHT22;1474;51.460;7.150;2023-04-15T10:44:47;11.70;99.90
2929;DHT22;1474;51.460;7.150;2023-04-15T10:47:17;11.60;99.90
2929;DHT22;1474;51.460;7.150;2023-04-15T10:49:48;11.70;99.90
2929;DHT22;1474;51.460;7.150;2023-04-15T10:52:15;11.70;99.90
2929;DHT22;1474;51.460;7.150;2023-04-15T10:54:42;11.70;99.90
2929;DHT22;1474;51.460;7.150;2023-04-15T10:57:23;11.70;99.90
2929;DHT22;1474;51.460;7.150;2023-04-15T11:05:12;11.70;99.90
2929;DHT22;1474;51.460;7.150;2023-04-15T11:07:49;11.70;99.90
2929;DHT22;1474;51.460;7.150;2023-04-15T11:12:59;11.70;99.90
2929;DHT22;1474;51.460;7.150;2023-04-15T11:15:38;11.60;99.90
2929;DHT22;1474;51.460;7.150;2023-04-15T11:18:23;11.50;99.90
2929;DHT22;1474;51.460;7.150;2023-04-15T11:20:56;11.20;99.90
2929;DHT22;1474;51.460;7.150;2023-04-15T11:23:32;11.10;99.90
2929;DHT22;1474;51.460;7.150;2023-04-15T11:26:00;11.10;99.90
2929;DHT22;1474;51.460;7.150;2023-04-15T11:28:28;11.00;99.90
2929;DHT22;1474;51.460;7.150;2023-04-15T11:30:55;11.00;99.90
2929;DHT22;1474;51.460;7.150;2023-04-15T11:33:22;11.00;99.90
2929;DHT22;1474;51.460;7.150;2023-04-15T11:35:48;11.00;99.90
2929;DHT22;1474;51.460;7.150;2023-04-15T11:38:14;10.90;99.90
2929;DHT22;1474;51.460;7.150;2023-04-15T11:40:41;11.00;99.90
2929;DHT22;1474;51.460;7.150;2023-04-15T11:45:33;11.00;99.90
2929;DHT22;1474;51.460;7.150;2023-04-15T11:48:10;10.90;99.90
2929;DHT22;1474;51.460;7.150;2023-04-15T11:50:37;10.80;99.90
2929;DHT22;1474;51.460;7.150;2023-04-15T11:53:10;10.80;99.90
2929;DHT22;1474;51.460;7.150;2023-04-15T11:55:46;10.80;99.90
2929;DHT22;1474;51.460;7.150;2023-04-15T11:58:14;10.70;99.90
2929;DHT22;1474;51.460;7.150;2023-04-15T12:03:17;10.80;99.90
2929;DHT22;1474;51.460;7.150;2023-04-15T12:06:09;10.90;99.90
2929;DHT22;1474;51.460;7.150;2023-04-15T12:14:23;11.00;99.90
2929;DHT22;1474;51.460;7.150;2023-04-15T12:17:00;10.90;99.90
2929;DHT22;1474;51.460;7.150;2023-04-15T12:19:27;10.90;99.90
2929;DHT22;1474;51.460;7.150;2023-04-15T12:21:58;10.80;99.90
2929;DHT22;1474;51.460;7.150;2023-04-15T12:24:25;10.80;99.90
2929;DHT22;1474;51.460;7.150;2023-04-15T12:26:55;10.70;99.90
2929;DHT22;1474;51.460;7.150;2023-04-15T12:29:25;10.70;99.90
2929;DHT22;1474;51.460;7.150;2023-04-15T12:31:54;10.70;99.90
2929;DHT22;1474;51.460;7.150;2023-04-15T12:36:53;10.70;99.90
2929;DHT22;1474;51.460;7.150;2023-04-15T12:39:23;10.70;99.90
2929;DHT22;1474;51.460;7.150;2023-04-15T12:41:49;10.70;99.90
2929;DHT22;1474;51.460;7.150;2023-04-15T12:44:14;10.70;99.90
2929;DHT22;1474;51.460;7.150;2023-04-15T12:46:40;10.70;99.90
2929;DHT22;1474;51.460;7.150;2023-04-15T12:49:06;10.60;99.90
2929;DHT22;1474;51.460;7.150;2023-04-15T12:51:32;10.60;99.90
2929;DHT22;1474;51.460;7.150;2023-04-15T12:53:58;10.70;99.90
2929;DHT22;1474;51.460;7.150;2023-04-15T12:56:23;10.70;99.90
2929;DHT22;1474;51.460;7.150;2023-04-15T12:58:49;10.70;99.90
2929;DHT22;1474;51.460;7.150;2023-04-15T13:01:16;10.70;99.90
2929;DHT22;1474;51.460;7.150;2023-04-15T13:03:41;10.80;99.90
2929;DHT22;1474;51.460;7.150;2023-04-15T13:06:07;10.80;99.90
2929;DHT22;1474;51.460;7.150;2023-04-15T13:08:33;10.80;99.90
2929;DHT22;1474;51.460;7.150;2023-04-15T13:10:58;10.90;99.90
2929;DHT22;1474;51.460;7.150;2023-04-15T13:13:24;11.00;99.90
2929;DHT22;1474;51.460;7.150;2023-04-15T13:15:50;11.10;99.90
2929;DHT22;1474;51.460;7.150;2023-04-15T13:18:16;11.20;99.90
2929;DHT22;1474;51.460;7.150;2023-04-15T13:20:41;11.10;99.90
2929;DHT22;1474;51.460;7.150;2023-04-15T13:23:07;11.10;99.90
2929;DHT22;1474;51.460;7.150;2023-04-15T13:25:32;11.10;99.90
2929;DHT22;1474;51.460;7.150;2023-04-15T13:27:58;11.20;99.90
2929;DHT22;1474;51.460;7.150;2023-04-15T13:30:25;11.20;99.90
2929;DHT22;1474;51.460;7.150;2023-04-15T13:32:52;11.20;99.90
2929;DHT22;1474;51.460;7.150;2023-04-15T13:35:18;11.10;99.90
2929;DHT22;1474;51.460;7.150;2023-04-15T13:37:44;11.10;99.90
2929;DHT22;1474;51.460;7.150;2023-04-15T13:40:10;11.10;99.90
2929;DHT22;1474;51.460;7.150;2023-04-15T13:42:36;11.00;99.90
2929;DHT22;1474;51.460;7.150;2023-04-15T13:45:01;11.00;99.90
2929;DHT22;1474;51.460;7.150;2023-04-15T13:47:27;10.90;99.90
2929;DHT22;1474;51.460;7.150;2023-04-15T13:49:53;10.80;99.90
2929;DHT22;1474;51.460;7.150;2023-04-15T13:52:21;10.70;99.90
2929;DHT22;1474;51.460;7.150;2023-04-15T13:54:47;10.70;99.90
2929;DHT22;1474;51.460;7.150;2023-04-15T13:57:12;10.70;99.90
2929;DHT22;1474;51.460;7.150;2023-04-15T13:59:38;10.70;99.90
2929;DHT22;1474;51.460;7.150;2023-04-15T14:02:04;10.70;99.90
2929;DHT22;1474;51.460;7.150;2023-04-15T14:04:32;10.80;99.90
2929;DHT22;1474;51.460;7.150;2023-04-15T14:06:59;10.80;99.90
2929;DHT22;1474;51.460;7.150;2023-04-15T14:09:25;10.80;99.90
2929;DHT22;1474;51.460;7.150;2023-04-15T14:11:50;10.80;99.90
2929;DHT22;1474;51.460;7.150;2023-04-15T14:14:16;10.60;99.90
2929;DHT22;1474;51.460;7.150;2023-04-15T14:16:42;10.60;99.90
2929;DHT22;1474;51.460;7.150;2023-04-15T14:19:07;10.40;99.90
2929;DHT22;1474;51.460;7.150;2023-04-15T14:21:33;10.30;99.90
2929;DHT22;1474;51.460;7.150;2023-04-15T14:23:59;10.30;99.90
2929;DHT22;1474;51.460;7.150;2023-04-15T14:26:25;10.20;99.90
2929;DHT22;1474;51.460;7.150;2023-04-15T14:28:50;10.20;99.90
2929;DHT22;1474;51.460;7.150;2023-04-15T14:31:17;10.20;99.90
2929;DHT22;1474;51.460;7.150;2023-04-15T14:33:43;10.20;99.90
2929;DHT22;1474;51.460;7.150;2023-04-15T14:36:09;10.30;99.90
2929;DHT22;1474;51.460;7.150;2023-04-15T14:38:35;10.30;99.90
2929;DHT22;1474;51.460;7.150;2023-04-15T14:41:05;10.30;99.90
2929;DHT22;1474;51.460;7.150;2023-04-15T14:43:31;10.40;99.90
2929;DHT22;1474;51.460;7.150;2023-04-15T14:45:57;10.40;99.90
2929;DHT22;1474;51.460;7.150;2023-04-15T14:48:23;10.30;99.90
2929;DHT22;1474;51.460;7.150;2023-04-15T14:50:49;10.20;99.90
2929;DHT22;1474;51.460;7.150;2023-04-15T14:53:14;10.20;99.90
2929;DHT22;1474;51.460;7.150;2023-04-15T14:55:40;10.20;99.90
2929;DHT22;1474;51.460;7.150;2023-04-15T14:58:06;10.20;99.90
2929;DHT22;1474;51.460;7.150;2023-04-15T15:00:34;10.20;99.90
2929;DHT22;1474;51.460;7.150;2023-04-15T15:03:00;10.20;99.90
2929;DHT22;1474;51.460;7.150;2023-04-15T15:05:26;10.20;99.90
2929;DHT22;1474;51.460;7.150;2023-04-15T15:07:52;10.20;99.90
2929;DHT22;1474;51.460;7.150;2023-04-15T15:10:17;10.20;99.90
2929;DHT22;1474;51.460;7.150;2023-04-15T15:12:43;10.20;99.90
2929;DHT22;1474;51.460;7.150;2023-04-15T15:15:09;10.30;99.90
2929;DHT22;1474;51.460;7.150;2023-04-15T15:17:34;10.20;99.90
2929;DHT22;1474;51.460;7.150;2023-04-15T15:20:00;10.10;99.90
2929;DHT22;1474;51.460;7.150;2023-04-15T15:22:27;10.10;99.90
2929;DHT22;1474;51.460;7.150;2023-04-15T15:24:53;10.10;99.90
2929;DHT22;1474;51.460;7.150;2023-04-15T15:27:19;10.00;99.90
2929;DHT22;1474;51.460;7.150;2023-04-15T15:29:44;10.00;99.90
2929;DHT22;1474;51.460;7.150;2023-04-15T15:32:10;10.00;99.90
2929;DHT22;1474;51.460;7.150;2023-04-15T15:34:36;10.00;99.90
2929;DHT22;1474;51.460;7.150;2023-04-15T15:37:01;10.00;99.90
2929;DHT22;1474;51.460;7.150;2023-04-15T15:39:27;10.00;99.90
2929;DHT22;1474;51.460;7.150;2023-04-15T15:41:54;10.00;99.90
2929;DHT22;1474;51.460;7.150;2023-04-15T15:44:19;10.00;99.90
2929;DHT22;1474;51.460;7.150;2023-04-15T15:46:45;10.00;99.90
2929;DHT22;1474;51.460;7.150;2023-04-15T15:49:11;10.00;99.90
2929;DHT22;1474;51.460;7.150;2023-04-15T15:51:37;10.00;99.90
2929;DHT22;1474;51.460;7.150;2023-04-15T15:54:02;10.00;99.90
2929;DHT22;1474;51.460;7.150;2023-04-15T15:56:28;10.00;99.90
2929;DHT22;1474;51.460;7.150;2023-04-15T15:58:54;9.90;99.90
2929;DHT22;1474;51.460;7.150;2023-04-15T16:01:20;9.80;99.90
2929;DHT22;1474;51.460;7.150;2023-04-15T16:03:45;9.80;99.90
2929;DHT22;1474;51.460;7.150;2023-04-15T16:06:11;9.70;99.90
2929;DHT22;1474;51.460;7.150;2023-04-15T16:08:36;9.70;99.90
2929;DHT22;1474;51.460;7.150;2023-04-15T16:11:02;9.70;99.90
2929;DHT22;1474;51.460;7.150;2023-04-15T16:13:28;9.70;99.90
2929;DHT22;1474;51.460;7.150;2023-04-15T16:15:53;9.70;99.90
2929;DHT22;1474;51.460;7.150;2023-04-15T16:18:19;9.60;99.90
2929;DHT22;1474;51.460;7.150;2023-04-15T16:20:45;9.60;99.90
2929;DHT22;1474;51.460;7.150;2023-04-15T16:23:12;9.60;99.90
2929;DHT22;1474;51.460;7.150;2023-04-15T16:25:40;9.60;99.90
2929;DHT22;1474;51.460;7.150;2023-04-15T16:28:05;9.50;99.90
2929;DHT22;1474;51.460;7.150;2023-04-15T16:30:37;9.50;99.90